sensor_id;sensor_type;location;lat;lon;timestamp;P1;durP1;ratioP1;P2;durP2;ratioP2
56233;SDS011;42141;53.240;6.580;2023-07-13T00:00:33;9.85;;;1.20;;
56233;SDS011;42141;53.240;6.580;2023-07-13T00:02:59;4.38;;;1.67;;
56233;SDS011;42141;53.240;6.580;2023-07-13T00:05:25;12.10;;;1.77;;
56233;SDS011;42141;53.240;6.580;2023-07-13T00:07:51;5.45;;;1.30;;
56233;SDS011;42141;53.240;6.580;2023-07-13T00:10:20;5.38;;;1.42;;
56233;SDS011;42141;53.240;6.580;2023-07-13T00:12:49;10.25;;;1.70;;
56233;SDS011;42141;53.240;6.580;2023-07-13T00:15:18;7.72;;;1.52;;
56233;SDS011;42141;53.240;6.580;2023-07-13T00:17:48;7.97;;;1.17;;
56233;SDS011;42141;53.240;6.580;2023-07-13T00:20:15;6.63;;;1.77;;
56233;SDS011;42141;53.240;6.580;2023-07-13T00:22:41;11.60;;;1.98;;
56233;SDS011;42141;53.240;6.580;2023-07-13T00:25:08;5.03;;;1.42;;
56233;SDS011;42141;53.240;6.580;2023-07-13T00:27:37;6.90;;;1.25;;
56233;SDS011;42141;53.240;6.580;2023-07-13T00:30:03;10.30;;;1.52;;
56233;SDS011;42141;53.240;6.580;2023-07-13T00:32:30;4.47;;;1.80;;
56233;SDS011;42141;53.240;6.580;2023-07-13T00:34:56;8.85;;;1.30;;
56233;SDS011;42141;53.240;6.580;2023-07-13T00:37:23;8.63;;;1.55;;
56233;SDS011;42141;53.240;6.580;2023-07-13T00:39:49;7.80;;;1.45;;
56233;SDS011;42141;53.240;6.580;2023-07-13T00:42:21;4.90;;;1.48;;
56233;SDS011;42141;53.240;6.580;2023-07-13T00:47:40;5.97;;;1.33;;
56233;SDS011;42141;53.240;6.580;2023-07-13T00:50:07;11.77;;;1.70;;
56233;SDS011;42141;53.240;6.580;2023-07-13T00:52:36;8.65;;;2.65;;
56233;SDS011;42141;53.240;6.580;2023-07-13T00:55:05;8.70;;;1.45;;
56233;SDS011;42141;53.240;6.580;2023-07-13T00:57:32;8.43;;;1.20;;
56233;SDS011;42141;53.240;6.580;2023-07-13T00:59:58;9.43;;;1.60;;
56233;SDS011;42141;53.240;6.580;2023-07-13T01:02:33;8.50;;;1.85;;
56233;SDS011;42141;53.240;6.580;2023-07-13T01:05:00;12.27;;;2.22;;
56233;SDS011;42141;53.240;6.580;2023-07-13T01:07:27;7.10;;;1.63;;
56233;SDS011;42141;53.240;6.580;2023-07-13T01:09:53;12.75;;;1.90;;
56233;SDS011;42141;53.240;6.580;2023-07-13T01:12:18;6.75;;;1.65;;
56233;SDS011;42141;53.240;6.580;2023-07-13T01:14:44;4.85;;;1.55;;
56233;SDS011;42141;53.240;6.580;2023-07-13T01:17:10;7.40;;;1.83;;
56233;SDS011;42141;53.240;6.580;2023-07-13T01:19:38;6.30;;;1.35;;
56233;SDS011;42141;53.240;6.580;2023-07-13T01:22:09;5.65;;;1.58;;
56233;SDS011;42141;53.240;6.580;2023-07-13T01:24:37;8.98;;;1.30;;
56233;SDS011;42141;53.240;6.580;2023-07-13T01:27:07;7.20;;;2.03;;
56233;SDS011;42141;53.240;6.580;2023-07-13T01:29:34;7.65;;;2.25;;
56233;SDS011;42141;53.240;6.580;2023-07-13T01:32:11;11.27;;;1.98;;
56233;SDS011;42141;53.240;6.580;2023-07-13T01:34:40;16.60;;;2.72;;
56233;SDS011;42141;53.240;6.580;2023-07-13T01:37:09;7.97;;;1.48;;
56233;SDS011;42141;53.240;6.580;2023-07-13T01:39:37;12.30;;;2.10;;
56233;SDS011;42141;53.240;6.580;2023-07-13T01:42:03;15.38;;;2.30;;
56233;SDS011;42141;53.240;6.580;2023-07-13T01:44:29;8.68;;;2.03;;
56233;SDS011;42141;53.240;6.580;2023-07-13T01:46:55;7.13;;;1.63;;
56233;SDS011;42141;53.240;6.580;2023-07-13T01:49:21;6.53;;;1.63;;
56233;SDS011;42141;53.240;6.580;2023-07-13T01:51:47;12.68;;;2.15;;
56233;SDS011;42141;53.240;6.580;2023-07-13T01:54:13;8.68;;;2.00;;
56233;SDS011;42141;53.240;6.580;2023-07-13T01:56:39;7.97;;;1.65;;
56233;SDS011;42141;53.240;6.580;2023-07-13T01:59:07;5.60;;;1.58;;
56233;SDS011;42141;53.240;6.580;2023-07-13T02:01:33;9.52;;;1.27;;
56233;SDS011;42141;53.240;6.580;2023-07-13T02:03:59;6.38;;;1.40;;
56233;SDS011;42141;53.240;6.580;2023-07-13T02:06:25;10.02;;;1.50;;
56233;SDS011;42141;53.240;6.580;2023-07-13T02:08:51;9.30;;;1.23;;
56233;SDS011;42141;53.240;6.580;2023-07-13T02:11:17;6.38;;;1.30;;
56233;SDS011;42141;53.240;6.580;2023-07-13T02:13:43;6.57;;;1.40;;
56233;SDS011;42141;53.240;6.580;2023-07-13T02:16:08;4.05;;;0.90;;
56233;SDS011;42141;53.240;6.580;2023-07-13T02:18:34;2.90;;;0.95;;
56233;SDS011;42141;53.240;6.580;2023-07-13T02:21:00;6.07;;;1.40;;
56233;SDS011;42141;53.240;6.580;2023-07-13T02:23:26;5.15;;;1.70;;
56233;SDS011;42141;53.240;6.580;2023-07-13T02:25:58;3.88;;;0.93;;
56233;SDS011;42141;53.240;6.580;2023-07-13T02:28:25;7.32;;;1.95;;
56233;SDS011;42141;53.240;6.580;2023-07-13T02:30:51;5.50;;;1.33;;
56233;SDS011;42141;53.240;6.580;2023-07-13T02:33:17;6.82;;;1.40;;
56233;SDS011;42141;53.240;6.580;2023-07-13T02:35:42;6.55;;;1.27;;
56233;SDS011;42141;53.240;6.580;2023-07-13T02:38:08;4.32;;;2.03;;
56233;SDS011;42141;53.240;6.580;2023-07-13T02:40:34;4.70;;;1.05;;
56233;SDS011;42141;53.240;6.580;2023-07-13T02:43:00;11.18;;;1.25;;
56233;SDS011;42141;53.240;6.580;2023-07-13T02:45:26;7.22;;;1.42;;
56233;SDS011;42141;53.240;6.580;2023-07-13T02:47:52;7.25;;;1.23;;
56233;SDS011;42141;53.240;6.580;2023-07-13T02:50:18;5.32;;;1.23;;
56233;SDS011;42141;53.240;6.580;2023-07-13T02:52:44;10.85;;;1.10;;
56233;SDS011;42141;53.240;6.580;2023-07-13T02:55:11;5.00;;;1.20;;
56233;SDS011;42141;53.240;6.580;2023-07-13T02:57:37;8.32;;;1.73;;
56233;SDS011;42141;53.240;6.580;2023-07-13T03:00:03;6.45;;;1.23;;
56233;SDS011;42141;53.240;6.580;2023-07-13T03:02:33;3.97;;;1.30;;
56233;SDS011;42141;53.240;6.580;2023-07-13T03:04:59;7.95;;;1.63;;
56233;SDS011;42141;53.240;6.580;2023-07-13T03:07:26;5.03;;;1.77;;
56233;SDS011;42141;53.240;6.580;2023-07-13T03:09:55;5.20;;;1.80;;
56233;SDS011;42141;53.240;6.580;2023-07-13T03:12:21;5.93;;;2.67;;
56233;SDS011;42141;53.240;6.580;2023-07-13T03:14:47;11.50;;;2.28;;
56233;SDS011;42141;53.240;6.580;2023-07-13T03:17:13;9.40;;;1.60;;
56233;SDS011;42141;53.240;6.580;2023-07-13T03:19:39;7.82;;;2.20;;
56233;SDS011;42141;53.240;6.580;2023-07-13T03:22:05;6.65;;;2.75;;
56233;SDS011;42141;53.240;6.580;2023-07-13T03:24:32;11.35;;;2.38;;
56233;SDS011;42141;53.240;6.580;2023-07-13T03:27:00;12.73;;;2.83;;
56233;SDS011;42141;53.240;6.580;2023-07-13T03:29:29;7.57;;;1.98;;
56233;SDS011;42141;53.240;6.580;2023-07-13T03:31:55;19.38;;;3.15;;
56233;SDS011;42141;53.240;6.580;2023-07-13T03:34:21;9.88;;;2.00;;
56233;SDS011;42141;53.240;6.580;2023-07-13T03:36:46;10.90;;;2.95;;
56233;SDS011;42141;53.240;6.580;2023-07-13T03:39:12;14.90;;;2.65;;
56233;SDS011;42141;53.240;6.580;2023-07-13T03:41:38;7.97;;;2.63;;
56233;SDS011;42141;53.240;6.580;2023-07-13T03:44:04;12.20;;;2.35;;
56233;SDS011;42141;53.240;6.580;2023-07-13T03:46:30;8.23;;;2.45;;
56233;SDS011;42141;53.240;6.580;2023-07-13T03:48:56;10.98;;;2.53;;
56233;SDS011;42141;53.240;6.580;2023-07-13T03:51:22;8.02;;;2.08;;
56233;SDS011;42141;53.240;6.580;2023-07-13T03:53:49;12.15;;;3.17;;
56233;SDS011;42141;53.240;6.580;2023-07-13T03:56:15;10.70;;;2.47;;
56233;SDS011;42141;53.240;6.580;2023-07-13T03:58:44;9.80;;;2.22;;
56233;SDS011;42141;53.240;6.580;2023-07-13T04:01:12;8.07;;;2.00;;
56233;SDS011;42141;53.240;6.580;2023-07-13T04:03:39;10.55;;;2.10;;
56233;SDS011;42141;53.240;6.580;2023-07-13T04:06:06;13.45;;;2.88;;
56233;SDS011;42141;53.240;6.580;2023-07-13T04:08:36;14.25;;;2.03;;
56233;SDS011;42141;53.240;6.580;2023-07-13T04:11:02;5.85;;;2.08;;
56233;SDS011;42141;53.240;6.580;2023-07-13T04:13:29;10.00;;;1.95;;
56233;SDS011;42141;53.240;6.580;2023-07-13T04:15:55;11.85;;;2.25;;
56233;SDS011;42141;53.240;6.580;2023-07-13T04:18:21;14.13;;;2.35;;
56233;SDS011;42141;53.240;6.580;2023-07-13T04:20:47;14.48;;;3.08;;
56233;SDS011;42141;53.240;6.580;2023-07-13T04:23:14;6.13;;;2.03;;
56233;SDS011;42141;53.240;6.580;2023-07-13T04:25:47;7.93;;;2.53;;
56233;SDS011;42141;53.240;6.580;2023-07-13T04:28:15;10.13;;;3.03;;
56233;SDS011;42141;53.240;6.580;2023-07-13T04:30:42;19.15;;;2.72;;
56233;SDS011;42141;53.240;6.580;2023-07-13T04:33:08;6.22;;;2.05;;
56233;SDS011;42141;53.240;6.580;2023-07-13T04:35:34;7.85;;;1.83;;
56233;SDS011;42141;53.240;6.580;2023-07-13T04:38:00;9.35;;;2.25;;
56233;SDS011;42141;53.240;6.580;2023-07-13T04:40:27;8.75;;;2.17;;
56233;SDS011;42141;53.240;6.580;2023-07-13T04:42:53;8.80;;;1.88;;
56233;SDS011;42141;53.240;6.580;2023-07-13T04:45:19;12.30;;;2.55;;
56233;SDS011;42141;53.240;6.580;2023-07-13T04:47:45;9.05;;;1.98;;
56233;SDS011;42141;53.240;6.580;2023-07-13T04:50:12;4.70;;;1.85;;
56233;SDS011;42141;53.240;6.580;2023-07-13T04:52:43;7.72;;;2.40;;
56233;SDS011;42141;53.240;6.580;2023-07-13T04:55:09;10.23;;;2.50;;
56233;SDS011;42141;53.240;6.580;2023-07-13T04:57:35;5.50;;;2.03;;
56233;SDS011;42141;53.240;6.580;2023-07-13T05:00:01;11.63;;;1.90;;
56233;SDS011;42141;53.240;6.580;2023-07-13T05:02:31;6.65;;;2.35;;
56233;SDS011;42141;53.240;6.580;2023-07-13T05:04:57;10.52;;;2.22;;
56233;SDS011;42141;53.240;6.580;2023-07-13T05:07:24;8.82;;;2.33;;
56233;SDS011;42141;53.240;6.580;2023-07-13T05:09:50;13.85;;;2.33;;
56233;SDS011;42141;53.240;6.580;2023-07-13T05:12:16;12.88;;;2.92;;
56233;SDS011;42141;53.240;6.580;2023-07-13T05:14:42;11.13;;;3.65;;
56233;SDS011;42141;53.240;6.580;2023-07-13T05:17:08;9.13;;;2.25;;
56233;SDS011;42141;53.240;6.580;2023-07-13T05:19:34;12.25;;;2.20;;
56233;SDS011;42141;53.240;6.580;2023-07-13T05:22:00;6.88;;;2.20;;
56233;SDS011;42141;53.240;6.580;2023-07-13T05:24:27;13.25;;;2.53;;
56233;SDS011;42141;53.240;6.580;2023-07-13T05:26:53;7.18;;;2.47;;
56233;SDS011;42141;53.240;6.580;2023-07-13T05:29:19;14.20;;;2.25;;
56233;SDS011;42141;53.240;6.580;2023-07-13T05:31:48;7.50;;;2.22;;
56233;SDS011;42141;53.240;6.580;2023-07-13T05:34:14;10.32;;;2.17;;
56233;SDS011;42141;53.240;6.580;2023-07-13T05:36:40;6.22;;;2.00;;
56233;SDS011;42141;53.240;6.580;2023-07-13T05:39:06;9.15;;;1.77;;
56233;SDS011;42141;53.240;6.580;2023-07-13T05:41:32;13.50;;;2.10;;
56233;SDS011;42141;53.240;6.580;2023-07-13T05:43:58;10.50;;;2.25;;
56233;SDS011;42141;53.240;6.580;2023-07-13T05:46:24;6.43;;;1.95;;
56233;SDS011;42141;53.240;6.580;2023-07-13T05:48:52;12.57;;;2.30;;
56233;SDS011;42141;53.240;6.580;2023-07-13T05:51:18;8.98;;;1.83;;
56233;SDS011;42141;53.240;6.580;2023-07-13T05:53:44;9.23;;;2.72;;
56233;SDS011;42141;53.240;6.580;2023-07-13T05:56:10;14.73;;;2.78;;
56233;SDS011;42141;53.240;6.580;2023-07-13T05:58:35;8.50;;;2.00;;
56233;SDS011;42141;53.240;6.580;2023-07-13T06:01:05;9.23;;;1.77;;
56233;SDS011;42141;53.240;6.580;2023-07-13T06:03:34;8.52;;;1.30;;
56233;SDS011;42141;53.240;6.580;2023-07-13T06:05:59;13.85;;;1.83;;
56233;SDS011;42141;53.240;6.580;2023-07-13T06:08:26;7.85;;;1.60;;
56233;SDS011;42141;53.240;6.580;2023-07-13T06:10:52;10.35;;;2.22;;
56233;SDS011;42141;53.240;6.580;2023-07-13T06:13:18;9.15;;;2.30;;
56233;SDS011;42141;53.240;6.580;2023-07-13T06:15:53;6.05;;;1.60;;
56233;SDS011;42141;53.240;6.580;2023-07-13T06:18:18;7.13;;;1.38;;
56233;SDS011;42141;53.240;6.580;2023-07-13T06:20:44;10.10;;;2.25;;
56233;SDS011;42141;53.240;6.580;2023-07-13T06:23:10;8.35;;;1.77;;
56233;SDS011;42141;53.240;6.580;2023-07-13T06:25:35;8.07;;;1.92;;
56233;SDS011;42141;53.240;6.580;2023-07-13T06:28:01;5.05;;;1.25;;
56233;SDS011;42141;53.240;6.580;2023-07-13T06:30:27;6.18;;;1.95;;
56233;SDS011;42141;53.240;6.580;2023-07-13T06:32:53;5.57;;;1.17;;
56233;SDS011;42141;53.240;6.580;2023-07-13T06:35:18;3.88;;;1.23;;
56233;SDS011;42141;53.240;6.580;2023-07-13T06:37:44;8.70;;;1.20;;
56233;SDS011;42141;53.240;6.580;2023-07-13T06:40:10;4.65;;;1.20;;
56233;SDS011;42141;53.240;6.580;2023-07-13T06:42:37;2.47;;;1.05;;
56233;SDS011;42141;53.240;6.580;2023-07-13T06:45:03;6.85;;;1.27;;
56233;SDS011;42141;53.240;6.580;2023-07-13T06:47:29;6.35;;;2.00;;
56233;SDS011;42141;53.240;6.580;2023-07-13T06:49:55;5.93;;;1.73;;
56233;SDS011;42141;53.240;6.580;2023-07-13T06:52:22;6.35;;;1.58;;
56233;SDS011;42141;53.240;6.580;2023-07-13T06:54:48;6.18;;;1.10;;
56233;SDS011;42141;53.240;6.580;2023-07-13T06:57:14;9.18;;;1.98;;
56233;SDS011;42141;53.240;6.580;2023-07-13T06:59:39;4.97;;;1.52;;
56233;SDS011;42141;53.240;6.580;2023-07-13T07:02:05;6.45;;;1.00;;
56233;SDS011;42141;53.240;6.580;2023-07-13T07:04:33;2.40;;;0.93;;
56233;SDS011;42141;53.240;6.580;2023-07-13T07:06:59;6.40;;;1.17;;
56233;SDS011;42141;53.240;6.580;2023-07-13T07:09:25;3.35;;;0.80;;
56233;SDS011;42141;53.240;6.580;2023-07-13T07:11:51;4.20;;;1.25;;
56233;SDS011;42141;53.240;6.580;2023-07-13T07:14:18;6.10;;;1.27;;
56233;SDS011;42141;53.240;6.580;2023-07-13T07:16:44;7.03;;;1.10;;
56233;SDS011;42141;53.240;6.580;2023-07-13T07:19:10;6.72;;;2.35;;
56233;SDS011;42141;53.240;6.580;2023-07-13T07:21:37;10.05;;;1.48;;
56233;SDS011;42141;53.240;6.580;2023-07-13T07:24:03;4.28;;;1.00;;
56233;SDS011;42141;53.240;6.580;2023-07-13T07:26:29;3.53;;;1.33;;
56233;SDS011;42141;53.240;6.580;2023-07-13T07:28:55;5.13;;;1.00;;
56233;SDS011;42141;53.240;6.580;2023-07-13T07:31:21;7.75;;;1.08;;
56233;SDS011;42141;53.240;6.580;2023-07-13T07:33:47;4.53;;;0.90;;
56233;SDS011;42141;53.240;6.580;2023-07-13T07:36:14;3.17;;;0.85;;
56233;SDS011;42141;53.240;6.580;2023-07-13T07:38:41;1.95;;;0.70;;
56233;SDS011;42141;53.240;6.580;2023-07-13T07:41:07;4.13;;;0.90;;
56233;SDS011;42141;53.240;6.580;2023-07-13T07:43:33;3.55;;;0.68;;
56233;SDS011;42141;53.240;6.580;2023-07-13T07:45:59;4.82;;;1.55;;
56233;SDS011;42141;53.240;6.580;2023-07-13T07:48:27;7.30;;;1.02;;
56233;SDS011;42141;53.240;6.580;2023-07-13T07:50:53;4.50;;;0.70;;
56233;SDS011;42141;53.240;6.580;2023-07-13T07:53:19;3.45;;;0.80;;
56233;SDS011;42141;53.240;6.580;2023-07-13T07:55:47;3.90;;;1.52;;
56233;SDS011;42141;53.240;6.580;2023-07-13T07:58:13;3.30;;;1.00;;
56233;SDS011;42141;53.240;6.580;2023-07-13T08:00:39;5.57;;;0.93;;
56233;SDS011;42141;53.240;6.580;2023-07-13T08:03:05;3.10;;;1.35;;
56233;SDS011;42141;53.240;6.580;2023-07-13T08:05:31;2.88;;;0.73;;
56233;SDS011;42141;53.240;6.580;2023-07-13T08:07:59;4.40;;;1.25;;
56233;SDS011;42141;53.240;6.580;2023-07-13T08:10:25;3.08;;;0.85;;
56233;SDS011;42141;53.240;6.580;2023-07-13T08:12:51;3.78;;;0.82;;
56233;SDS011;42141;53.240;6.580;2023-07-13T08:15:17;2.10;;;0.70;;
56233;SDS011;42141;53.240;6.580;2023-07-13T08:17:45;3.20;;;0.60;;
56233;SDS011;42141;53.240;6.580;2023-07-13T08:20:14;1.98;;;0.63;;
56233;SDS011;42141;53.240;6.580;2023-07-13T08:22:40;2.72;;;0.65;;
56233;SDS011;42141;53.240;6.580;2023-07-13T08:25:06;2.78;;;0.63;;
56233;SDS011;42141;53.240;6.580;2023-07-13T08:27:32;3.10;;;0.82;;
56233;SDS011;42141;53.240;6.580;2023-07-13T08:29:58;1.75;;;0.70;;
56233;SDS011;42141;53.240;6.580;2023-07-13T08:32:24;4.43;;;0.93;;
56233;SDS011;42141;53.240;6.580;2023-07-13T08:34:50;5.53;;;1.00;;
56233;SDS011;42141;53.240;6.580;2023-07-13T08:37:16;3.20;;;0.90;;
56233;SDS011;42141;53.240;6.580;2023-07-13T08:39:42;2.35;;;1.00;;
56233;SDS011;42141;53.240;6.580;2023-07-13T08:45:19;3.15;;;0.80;;
56233;SDS011;42141;53.240;6.580;2023-07-13T08:47:39;2.08;;;0.88;;
56233;SDS011;42141;53.240;6.580;2023-07-13T08:50:17;4.00;;;0.65;;
56233;SDS011;42141;53.240;6.580;2023-07-13T08:52:46;3.13;;;0.90;;
56233;SDS011;42141;53.240;6.580;2023-07-13T08:57:38;6.57;;;1.10;;
56233;SDS011;42141;53.240;6.580;2023-07-13T09:00:10;5.20;;;0.85;;
56233;SDS011;42141;53.240;6.580;2023-07-13T09:05:18;7.03;;;1.20;;
56233;SDS011;42141;53.240;6.580;2023-07-13T09:10:30;6.23;;;0.70;;
56233;SDS011;42141;53.240;6.580;2023-07-13T09:13:20;3.90;;;1.20;;
56233;SDS011;42141;53.240;6.580;2023-07-13T09:15:48;3.35;;;0.80;;
56233;SDS011;42141;53.240;6.580;2023-07-13T09:23:27;3.42;;;1.13;;
56233;SDS011;42141;53.240;6.580;2023-07-13T09:25:58;7.03;;;2.40;;
56233;SDS011;42141;53.240;6.580;2023-07-13T09:28:34;3.80;;;1.20;;
56233;SDS011;42141;53.240;6.580;2023-07-13T09:31:06;9.45;;;1.15;;
56233;SDS011;42141;53.240;6.580;2023-07-13T09:33:45;4.28;;;1.05;;
56233;SDS011;42141;53.240;6.580;2023-07-13T09:36:24;6.15;;;1.35;;
56233;SDS011;42141;53.240;6.580;2023-07-13T09:39:01;7.20;;;0.90;;
56233;SDS011;42141;53.240;6.580;2023-07-13T09:44:36;3.55;;;0.65;;
56233;SDS011;42141;53.240;6.580;2023-07-13T09:47:03;2.20;;;0.82;;
56233;SDS011;42141;53.240;6.580;2023-07-13T09:49:42;4.90;;;0.90;;
56233;SDS011;42141;53.240;6.580;2023-07-13T09:52:14;2.53;;;0.65;;
56233;SDS011;42141;53.240;6.580;2023-07-13T09:54:44;6.43;;;1.00;;
56233;SDS011;42141;53.240;6.580;2023-07-13T09:59:42;3.58;;;0.77;;
56233;SDS011;42141;53.240;6.580;2023-07-13T10:05:10;2.58;;;0.95;;
56233;SDS011;42141;53.240;6.580;2023-07-13T10:07:43;3.15;;;0.60;;
56233;SDS011;42141;53.240;6.580;2023-07-13T10:10:20;5.68;;;0.70;;
56233;SDS011;42141;53.240;6.580;2023-07-13T10:12:48;3.63;;;0.50;;
56233;SDS011;42141;53.240;6.580;2023-07-13T10:15:17;3.50;;;0.80;;
56233;SDS011;42141;53.240;6.580;2023-07-13T10:17:49;2.67;;;0.50;;
56233;SDS011;42141;53.240;6.580;2023-07-13T10:20:20;1.63;;;0.63;;
56233;SDS011;42141;53.240;6.580;2023-07-13T10:22:51;1.50;;;0.60;;
56233;SDS011;42141;53.240;6.580;2023-07-13T10:25:26;1.55;;;0.40;;
56233;SDS011;42141;53.240;6.580;2023-07-13T10:27:58;2.70;;;0.40;;
56233;SDS011;42141;53.240;6.580;2023-07-13T10:30:38;1.25;;;0.20;;
56233;SDS011;42141;53.240;6.580;2023-07-13T10:33:11;5.25;;;0.60;;
56233;SDS011;42141;53.240;6.580;2023-07-13T10:35:39;0.93;;;0.50;;
56233;SDS011;42141;53.240;6.580;2023-07-13T10:38:12;2.38;;;0.52;;
56233;SDS011;42141;53.240;6.580;2023-07-13T10:40:50;4.70;;;0.75;;
56233;SDS011;42141;53.240;6.580;2023-07-13T10:43:25;1.52;;;0.40;;
56233;SDS011;42141;53.240;6.580;2023-07-13T10:45:55;1.52;;;0.38;;
56233;SDS011;42141;53.240;6.580;2023-07-13T10:48:22;2.30;;;1.23;;
56233;SDS011;42141;53.240;6.580;2023-07-13T10:50:49;1.58;;;0.30;;
56233;SDS011;42141;53.240;6.580;2023-07-13T10:53:28;2.00;;;0.30;;
56233;SDS011;42141;53.240;6.580;2023-07-13T10:58:40;2.73;;;0.43;;
56233;SDS011;42141;53.240;6.580;2023-07-13T11:01:11;1.85;;;0.50;;
56233;SDS011;42141;53.240;6.580;2023-07-13T11:18:51;2.78;;;0.35;;
56233;SDS011;42141;53.240;6.580;2023-07-13T11:22:24;2.22;;;0.57;;
56233;SDS011;42141;53.240;6.580;2023-07-13T11:24:49;2.95;;;1.50;;
56233;SDS011;42141;53.240;6.580;2023-07-13T11:30:13;1.58;;;0.80;;
56233;SDS011;42141;53.240;6.580;2023-07-13T11:33:11;1.65;;;0.50;;
56233;SDS011;42141;53.240;6.580;2023-07-13T11:38:30;0.82;;;0.40;;
56233;SDS011;42141;53.240;6.580;2023-07-13T11:41:10;4.70;;;0.60;;
56233;SDS011;42141;53.240;6.580;2023-07-13T11:43:40;2.15;;;0.93;;
56233;SDS011;42141;53.240;6.580;2023-07-13T11:46:14;4.05;;;0.65;;
56233;SDS011;42141;53.240;6.580;2023-07-13T11:48:47;2.13;;;0.65;;
56233;SDS011;42141;53.240;6.580;2023-07-13T11:53:53;2.10;;;0.47;;
56233;SDS011;42141;53.240;6.580;2023-07-13T11:56:21;1.45;;;0.35;;
56233;SDS011;42141;53.240;6.580;2023-07-13T11:58:53;1.45;;;0.50;;
56233;SDS011;42141;53.240;6.580;2023-07-13T12:01:24;5.18;;;0.60;;
56233;SDS011;42141;53.240;6.580;2023-07-13T12:03:59;1.73;;;0.38;;
56233;SDS011;42141;53.240;6.580;2023-07-13T12:09:11;3.88;;;0.60;;
56233;SDS011;42141;53.240;6.580;2023-07-13T12:11:40;4.15;;;0.85;;
56233;SDS011;42141;53.240;6.580;2023-07-13T12:14:17;2.75;;;0.47;;
56233;SDS011;42141;53.240;6.580;2023-07-13T12:16:47;4.03;;;0.50;;
56233;SDS011;42141;53.240;6.580;2023-07-13T12:19:18;4.05;;;0.40;;
56233;SDS011;42141;53.240;6.580;2023-07-13T12:21:48;4.32;;;0.60;;
56233;SDS011;42141;53.240;6.580;2023-07-13T12:24:19;5.03;;;0.60;;
56233;SDS011;42141;53.240;6.580;2023-07-13T12:26:54;3.20;;;0.60;;
56233;SDS011;42141;53.240;6.580;2023-07-13T12:29:26;2.60;;;0.70;;
56233;SDS011;42141;53.240;6.580;2023-07-13T12:31:52;1.83;;;0.57;;
56233;SDS011;42141;53.240;6.580;2023-07-13T12:34:19;3.03;;;0.50;;
56233;SDS011;42141;53.240;6.580;2023-07-13T12:36:59;7.97;;;0.73;;
56233;SDS011;42141;53.240;6.580;2023-07-13T12:39:37;1.13;;;0.40;;
56233;SDS011;42141;53.240;6.580;2023-07-13T12:42:25;2.58;;;0.80;;
56233;SDS011;42141;53.240;6.580;2023-07-13T12:44:54;2.63;;;0.47;;
56233;SDS011;42141;53.240;6.580;2023-07-13T12:47:27;2.72;;;0.70;;
56233;SDS011;42141;53.240;6.580;2023-07-13T12:49:57;0.98;;;0.38;;
56233;SDS011;42141;53.240;6.580;2023-07-13T12:52:30;1.00;;;0.40;;
56233;SDS011;42141;53.240;6.580;2023-07-13T12:54:59;0.82;;;0.28;;
56233;SDS011;42141;53.240;6.580;2023-07-13T12:58:03;2.03;;;0.77;;
56233;SDS011;42141;53.240;6.580;2023-07-13T13:00:32;2.65;;;0.60;;
56233;SDS011;42141;53.240;6.580;2023-07-13T13:03:06;1.75;;;0.65;;
56233;SDS011;42141;53.240;6.580;2023-07-13T13:05:44;3.73;;;0.70;;
56233;SDS011;42141;53.240;6.580;2023-07-13T13:08:16;5.65;;;0.80;;
56233;SDS011;42141;53.240;6.580;2023-07-13T13:10:43;3.22;;;1.00;;
56233;SDS011;42141;53.240;6.580;2023-07-13T13:13:10;1.73;;;0.50;;
56233;SDS011;42141;53.240;6.580;2023-07-13T13:15:37;1.10;;;0.40;;
56233;SDS011;42141;53.240;6.580;2023-07-13T13:18:03;4.60;;;0.68;;
56233;SDS011;42141;53.240;6.580;2023-07-13T13:20:34;2.92;;;1.05;;
56233;SDS011;42141;53.240;6.580;2023-07-13T13:23:02;2.95;;;0.93;;
56233;SDS011;42141;53.240;6.580;2023-07-13T13:25:29;3.72;;;0.70;;
56233;SDS011;42141;53.240;6.580;2023-07-13T13:27:55;3.33;;;0.77;;
56233;SDS011;42141;53.240;6.580;2023-07-13T13:30:21;2.53;;;0.60;;
56233;SDS011;42141;53.240;6.580;2023-07-13T13:32:47;2.83;;;0.82;;
56233;SDS011;42141;53.240;6.580;2023-07-13T13:35:14;4.68;;;0.98;;
56233;SDS011;42141;53.240;6.580;2023-07-13T13:37:41;4.25;;;0.90;;
56233;SDS011;42141;53.240;6.580;2023-07-13T13:40:17;1.30;;;0.77;;
56233;SDS011;42141;53.240;6.580;2023-07-13T13:42:46;6.72;;;0.90;;
56233;SDS011;42141;53.240;6.580;2023-07-13T13:45:12;3.90;;;1.08;;
56233;SDS011;42141;53.240;6.580;2023-07-13T13:47:38;4.78;;;1.05;;
56233;SDS011;42141;53.240;6.580;2023-07-13T13:50:12;3.80;;;0.90;;
56233;SDS011;42141;53.240;6.580;2023-07-13T13:52:47;2.30;;;0.80;;
56233;SDS011;42141;53.240;6.580;2023-07-13T13:55:28;5.85;;;1.20;;
56233;SDS011;42141;53.240;6.580;2023-07-13T13:58:16;2.22;;;0.80;;
56233;SDS011;42141;53.240;6.580;2023-07-13T14:00:42;2.90;;;0.88;;
56233;SDS011;42141;53.240;6.580;2023-07-13T14:03:19;2.97;;;0.88;;
56233;SDS011;42141;53.240;6.580;2023-07-13T14:05:46;2.53;;;0.73;;
56233;SDS011;42141;53.240;6.580;2023-07-13T14:08:17;3.17;;;0.70;;
56233;SDS011;42141;53.240;6.580;2023-07-13T14:10:46;3.72;;;0.70;;
56233;SDS011;42141;53.240;6.580;2023-07-13T14:13:16;6.45;;;0.90;;
56233;SDS011;42141;53.240;6.580;2023-07-13T14:15:45;3.35;;;0.70;;
56233;SDS011;42141;53.240;6.580;2023-07-13T14:18:12;3.75;;;0.75;;
56233;SDS011;42141;53.240;6.580;2023-07-13T14:20:43;6.22;;;1.05;;
56233;SDS011;42141;53.240;6.580;2023-07-13T14:23:09;3.40;;;0.57;;
56233;SDS011;42141;53.240;6.580;2023-07-13T14:25:38;3.33;;;0.80;;
56233;SDS011;42141;53.240;6.580;2023-07-13T14:28:10;2.72;;;0.75;;
56233;SDS011;42141;53.240;6.580;2023-07-13T14:30:43;4.22;;;0.93;;
56233;SDS011;42141;53.240;6.580;2023-07-13T14:33:09;2.42;;;0.77;;
56233;SDS011;42141;53.240;6.580;2023-07-13T14:35:36;2.45;;;0.80;;
56233;SDS011;42141;53.240;6.580;2023-07-13T14:38:03;4.57;;;0.60;;
56233;SDS011;42141;53.240;6.580;2023-07-13T14:40:31;2.17;;;0.70;;
56233;SDS011;42141;53.240;6.580;2023-07-13T14:42:57;2.55;;;0.65;;
56233;SDS011;42141;53.240;6.580;2023-07-13T14:45:23;1.98;;;0.77;;
56233;SDS011;42141;53.240;6.580;2023-07-13T14:47:50;6.00;;;0.90;;
56233;SDS011;42141;53.240;6.580;2023-07-13T14:50:20;5.85;;;3.50;;
56233;SDS011;42141;53.240;6.580;2023-07-13T14:52:51;5.20;;;2.92;;
56233;SDS011;42141;53.240;6.580;2023-07-13T14:55:17;3.40;;;1.00;;
56233;SDS011;42141;53.240;6.580;2023-07-13T14:57:43;2.60;;;0.98;;
56233;SDS011;42141;53.240;6.580;2023-07-13T15:02:42;4.18;;;0.80;;
56233;SDS011;42141;53.240;6.580;2023-07-13T15:05:13;3.05;;;0.60;;
56233;SDS011;42141;53.240;6.580;2023-07-13T15:08:04;3.22;;;0.88;;
56233;SDS011;42141;53.240;6.580;2023-07-13T15:10:31;3.22;;;1.02;;
56233;SDS011;42141;53.240;6.580;2023-07-13T15:12:59;1.77;;;0.60;;
56233;SDS011;42141;53.240;6.580;2023-07-13T15:15:47;2.67;;;0.88;;
56233;SDS011;42141;53.240;6.580;2023-07-13T15:18:16;3.30;;;0.93;;
56233;SDS011;42141;53.240;6.580;2023-07-13T15:20:46;6.28;;;2.70;;
56233;SDS011;42141;53.240;6.580;2023-07-13T15:23:14;3.83;;;0.98;;
56233;SDS011;42141;53.240;6.580;2023-07-13T15:25:41;3.03;;;0.85;;
56233;SDS011;42141;53.240;6.580;2023-07-13T15:28:08;7.65;;;1.15;;
56233;SDS011;42141;53.240;6.580;2023-07-13T15:30:38;4.50;;;1.10;;
56233;SDS011;42141;53.240;6.580;2023-07-13T15:33:17;2.63;;;0.88;;
56233;SDS011;42141;53.240;6.580;2023-07-13T15:36:00;3.80;;;1.15;;
56233;SDS011;42141;53.240;6.580;2023-07-13T15:38:28;2.25;;;1.00;;
56233;SDS011;42141;53.240;6.580;2023-07-13T15:40:55;4.88;;;1.10;;
56233;SDS011;42141;53.240;6.580;2023-07-13T15:43:21;4.50;;;0.90;;
56233;SDS011;42141;53.240;6.580;2023-07-13T15:45:48;4.80;;;1.10;;
56233;SDS011;42141;53.240;6.580;2023-07-13T15:48:16;2.95;;;0.65;;
56233;SDS011;42141;53.240;6.580;2023-07-13T15:50:47;2.55;;;0.70;;
56233;SDS011;42141;53.240;6.580;2023-07-13T15:53:24;6.32;;;0.95;;